Time;durP1;ratioP1;P1;durP2;ratioP2;P2;SDS_P1;SDS_P2;PMS_P1;PMS_P2;Temp;Humidity;BMP_temperature;BMP_pressure;BME280_temperature;BME280_humidity;BME280_pressure;Samples;Min_cycle;Max_cycle;Signal;HPM_P1;HPM_P2
2023/10/23 00:33:50;;;;;;;15.18;5.80;;;;;;;;;;5009492;28;20189;-60
2023/10/23 00:40:41;;;;;;;15.75;5.55;;;;;;;;;;5026218;28;20048;-59
2023/10/23 00:47:31;;;;;;;16.55;5.70;;;;;;;;;;4994244;28;20121;-60
2023/10/23 00:57:12;;;;;;;19.83;6.00;;;;;;;;;;5016948;28;20056;-60
2023/10/23 02:04:08;;;;;;;16.77;5.28;;;;;;;;;;5024216;28;20132;-61
2023/10/23 02:07:37;;;;;;;18.30;5.57;;;;;;;;;;5006644;28;20175;-60
2023/10/23 02:14:09;;;;;;;16.00;5.50;;;;;;;;;;5004908;28;20509;-60
2023/10/23 02:17:23;;;;;;;18.10;5.43;;;;;;;;;;5006354;28;20129;-60
2023/10/23 02:26:47;;;;;;;17.45;5.35;;;;;;;;;;4996265;28;20049;-60
2023/10/23 02:42:13;;;;;;;;;;;;;;;;;;4969131;28;20060;-60
2023/10/23 03:06:23;;;;;;;17.52;5.82;;;;;;;;;;4991712;28;20243;-60
2023/10/23 03:34:31;;;;;;;13.13;5.50;;;;;;;;;;5020275;28;20025;-59
2023/10/23 03:44:22;;;;;;;15.80;5.38;;;;;;;;;;5000434;28;20192;-59
2023/10/23 03:53:52;;;;;;;18.05;6.15;;;;;;;;;;5023514;28;20393;-60
2023/10/23 04:02:54;;;;;;;;;;;;;;;;;;4996929;28;20533;-60
2023/10/23 04:06:10;;;;;;;14.93;5.90;;;;;;;;;;5014915;28;19994;-59
2023/10/23 04:09:27;;;;;;;15.82;6.10;;;;;;;;;;4990628;28;20525;-60
2023/10/23 04:12:45;;;;;;;16.30;5.82;;;;;;;;;;5001721;28;20382;-59
2023/10/23 04:25:23;;;;;;;13.80;5.75;;;;;;;;;;4979613;28;20121;-60
2023/10/23 04:28:44;;;;;;;17.45;5.88;;;;;;;;;;5013267;28;20095;-60
2023/10/23 04:32:04;;;;;;;20.05;6.22;;;;;;;;;;5012162;28;20081;-60
2023/10/23 04:35:38;;;;;;;16.83;6.18;;;;;;;;;;4993944;28;20475;-60
2023/10/23 04:42:01;;;;;;;15.00;6.55;;;;;;;;;;5023366;28;20037;-61
2023/10/23 04:48:45;;;;;;;20.73;6.82;;;;;;;;;;5021756;28;20045;-60
2023/10/23 05:13:50;;;;;;;19.48;7.10;;;;;;;;;;4988760;28;20825;-59
2023/10/23 05:32:32;;;;;;;21.15;6.85;;;;;;;;;;5015166;28;20036;-60
2023/10/23 05:35:54;;;;;;;22.65;8.00;;;;;;;;;;4962172;28;20125;-61
2023/10/23 05:39:06;;;;;;;23.90;7.40;;;;;;;;;;5003807;28;20041;-61
2023/10/23 05:42:19;;;;;;;20.50;6.80;;;;;;;;;;5003354;28;20021;-60
2023/10/23 05:45:32;;;;;;;17.90;6.63;;;;;;;;;;4971880;28;20506;-61
2023/10/23 05:48:33;;;;;;;22.38;7.30;;;;;;;;;;4973804;28;20050;-59
2023/10/23 05:51:29;;;;;;;20.08;7.57;;;;;;;;;;4987718;28;20181;-60
2023/10/23 05:54:26;;;;;;;22.52;7.65;;;;;;;;;;4992847;28;20096;-60
2023/10/23 05:57:21;;;;;;;23.75;7.70;;;;;;;;;;4994140;28;20874;-60
2023/10/23 06:00:20;;;;;;;22.27;7.88;;;;;;;;;;4960572;28;20170;-60
2023/10/23 06:03:13;;;;;;;25.92;8.07;;;;;;;;;;5002297;28;20034;-61
2023/10/23 06:09:39;;;;;;;25.48;7.38;;;;;;;;;;5001035;28;20106;-62
2023/10/23 06:12:36;;;;;;;23.02;7.68;;;;;;;;;;4977774;28;22465;-61
2023/10/23 06:15:33;;;;;;;25.77;7.70;;;;;;;;;;4987609;28;20042;-61
2023/10/23 06:18:31;;;;;;;24.95;7.32;;;;;;;;;;4994462;28;20042;-61
2023/10/23 06:21:40;;;;;;;24.33;7.67;;;;;;;;;;4993461;28;20042;-60
2023/10/23 06:24:38;;;;;;;24.30;8.20;;;;;;;;;;4956009;28;20046;-61
2023/10/23 06:27:49;;;;;;;26.60;8.13;;;;;;;;;;4994286;28;20128;-61
2023/10/23 06:30:59;;;;;;;21.38;7.55;;;;;;;;;;4987593;28;20072;-61
2023/10/23 06:34:13;;;;;;;22.45;7.95;;;;;;;;;;5008457;28;20553;-61
2023/10/23 06:37:03;;;;;;;26.83;8.20;;;;;;;;;;5009384;28;20263;-61
2023/10/23 06:40:18;;;;;;;22.95;8.35;;;;;;;;;;4998987;28;20038;-61
2023/10/23 06:43:21;;;;;;;27.20;9.02;;;;;;;;;;4996022;28;20116;-61
2023/10/23 06:46:16;;;;;;;28.23;8.55;;;;;;;;;;4979065;28;20046;-60
2023/10/23 06:49:13;;;;;;;27.88;8.77;;;;;;;;;;4974898;28;20058;-59
2023/10/23 06:52:24;;;;;;;22.65;8.40;;;;;;;;;;4983320;28;20140;-60
2023/10/23 06:58:56;;;;;;;21.48;6.70;;;;;;;;;;4974260;28;20092;-64
2023/10/23 07:02:02;;;;;;;24.73;7.63;;;;;;;;;;4999867;28;20037;-60
2023/10/23 07:05:10;;;;;;;22.73;8.38;;;;;;;;;;4976766;28;20068;-60
2023/10/23 07:08:13;;;;;;;22.80;6.95;;;;;;;;;;4999086;28;20045;-61
2023/10/23 07:11:27;;;;;;;22.75;7.60;;;;;;;;;;4975238;28;20129;-61
2023/10/23 07:14:48;;;;;;;19.53;7.00;;;;;;;;;;5012893;28;20026;-61
2023/10/23 07:18:10;;;;;;;26.05;8.52;;;;;;;;;;4972427;28;20046;-61
2023/10/23 07:21:27;;;;;;;20.00;7.53;;;;;;;;;;4963102;28;20475;-60
2023/10/23 07:28:03;;;;;;;21.52;7.47;;;;;;;;;;4972642;28;20035;-61
2023/10/23 07:31:09;;;;;;;26.35;8.25;;;;;;;;;;5013350;28;20028;-60
2023/10/23 07:33:58;;;;;;;23.33;8.00;;;;;;;;;;4974020;28;20053;-60
2023/10/23 07:37:23;;;;;;;28.30;8.30;;;;;;;;;;4976421;28;20084;-62
2023/10/23 07:43:21;;;;;;;24.83;8.32;;;;;;;;;;4987006;28;20034;-61
2023/10/23 07:46:16;;;;;;;23.15;7.93;;;;;;;;;;4983340;28;20478;-62
2023/10/23 07:49:12;;;;;;;24.30;7.82;;;;;;;;;;4966725;28;20049;-62
2023/10/23 07:52:17;;;;;;;26.23;7.43;;;;;;;;;;4980727;28;20443;-61
2023/10/23 07:55:15;;;;;;;21.63;7.55;;;;;;;;;;4973800;28;20229;-62
2023/10/23 07:58:14;;;;;;;28.50;7.90;;;;;;;;;;4990950;28;20057;-61
2023/10/23 08:01:22;;;;;;;25.33;7.72;;;;;;;;;;4967483;28;20454;-61
2023/10/23 08:07:43;;;;;;;22.48;7.53;;;;;;;;;;4997312;28;20052;-62
2023/10/23 08:11:02;;;;;;;24.13;7.90;;;;;;;;;;5009827;28;20044;-60
2023/10/23 08:14:24;;;;;;;20.55;7.68;;;;;;;;;;4980369;28;20076;-61
2023/10/23 08:17:52;;;;;;;21.20;7.07;;;;;;;;;;4975497;28;20046;-61
2023/10/23 08:24:32;;;;;;;24.33;7.28;;;;;;;;;;5001063;28;20437;-60
2023/10/23 08:27:49;;;;;;;19.95;7.07;;;;;;;;;;5022651;28;20037;-61
2023/10/23 08:34:24;;;;;;;25.08;7.82;;;;;;;;;;5000739;28;20037;-61
2023/10/23 08:37:40;;;;;;;22.40;7.60;;;;;;;;;;5001968;28;20513;-61
2023/10/23 08:40:56;;;;;;;16.23;7.38;;;;;;;;;;4989520;28;20026;-60
2023/10/23 08:50:45;;;;;;;18.63;7.70;;;;;;;;;;5010130;28;20354;-60
2023/10/23 08:57:09;;;;;;;25.50;8.05;;;;;;;;;;5026179;28;20178;-60
2023/10/23 09:00:23;;;;;;;20.83;7.28;;;;;;;;;;5005026;28;20076;-60
2023/10/23 09:03:41;;;;;;;21.15;7.90;;;;;;;;;;4994357;28;20057;-60
2023/10/23 09:07:00;;;;;;;21.50;8.13;;;;;;;;;;4995902;28;20022;-61
2023/10/23 09:26:46;;;;;;;20.52;7.40;;;;;;;;;;4982962;28;20045;-60
2023/10/23 09:30:15;;;;;;;25.00;7.80;;;;;;;;;;4994110;28;20072;-61
2023/10/23 09:33:32;;;;;;;20.63;6.97;;;;;;;;;;4972612;28;20050;-65
2023/10/23 09:36:45;;;;;;;18.85;7.32;;;;;;;;;;4995493;28;20065;-61
2023/10/23 09:40:11;;;;;;;19.50;7.07;;;;;;;;;;5003789;28;20061;-60
2023/10/23 09:43:34;;;;;;;20.42;6.78;;;;;;;;;;5015221;28;20103;-61
2023/10/23 09:53:20;;;;;;;18.48;6.40;;;;;;;;;;5014586;28;20045;-61
2023/10/23 09:59:55;;;;;;;19.48;6.50;;;;;;;;;;5021826;28;20107;-68
2023/10/23 10:03:04;;;;;;;17.83;6.45;;;;;;;;;;5014347;28;20036;-58
2023/10/23 10:42:38;;;;;;;15.27;5.70;;;;;;;;;;4996997;28;20045;-60
2023/10/23 10:46:04;;;;;;;15.13;5.97;;;;;;;;;;5017181;28;20083;-61
2023/10/23 10:51:57;;;;;;;15.38;5.93;;;;;;;;;;5014474;28;20362;-62
2023/10/23 11:04:05;;;;;;;14.00;6.00;;;;;;;;;;4974174;28;20037;-60
2023/10/23 11:07:11;;;;;;;19.70;5.85;;;;;;;;;;5002794;28;20088;-62
2023/10/23 11:10:16;;;;;;;18.30;5.73;;;;;;;;;;5014438;28;20526;-60
2023/10/23 11:12:59;;;;;;;;;;;;;;;;;;4997859;28;20285;-61
2023/10/23 11:16:22;;;;;;;14.65;5.22;;;;;;;;;;5017473;28;20377;-61
2023/10/23 11:22:57;;;;;;;18.95;5.53;;;;;;;;;;5000951;28;20048;-62
2023/10/23 11:26:11;;;;;;;16.60;5.70;;;;;;;;;;5015595;28;20049;-61
2023/10/23 11:29:30;;;;;;;13.73;5.47;;;;;;;;;;4975022;28;20038;-61
2023/10/23 11:32:53;;;;;;;14.77;5.20;;;;;;;;;;4975932;28;20553;-60
2023/10/23 11:41:57;;;;;;;14.35;5.55;;;;;;;;;;4992847;28;20080;-59
2023/10/23 11:45:09;;;;;;;15.45;4.85;;;;;;;;;;5002080;28;20178;-59
2023/10/23 11:48:14;;;;;;;11.77;5.10;;;;;;;;;;4982648;28;20486;-59
2023/10/23 11:51:16;;;;;;;12.55;4.93;;;;;;;;;;4990991;28;20065;-59
2023/10/23 11:54:13;;;;;;;14.65;4.90;;;;;;;;;;4980127;28;20041;-60
2023/10/23 11:57:14;;;;;;;15.27;5.40;;;;;;;;;;4989885;28;20029;-60
2023/10/23 11:59:52;;;;;;;;;;;;;;;;;;4990002;28;20510;-60
2023/10/23 12:02:49;;;;;;;12.20;4.53;;;;;;;;;;4997817;28;20907;-60
2023/10/23 12:22:36;;;;;;;16.98;4.72;;;;;;;;;;4973435;28;20148;-61
2023/10/23 12:32:24;;;;;;;13.88;4.53;;;;;;;;;;4993677;28;20045;-61
2023/10/23 12:35:41;;;;;;;14.98;4.15;;;;;;;;;;4998918;28;20434;-61
2023/10/23 12:38:58;;;;;;;14.27;4.40;;;;;;;;;;4998689;28;20037;-61
2023/10/23 12:48:32;;;;;;;14.70;4.85;;;;;;;;;;4994233;28;20099;-61
2023/10/23 12:57:31;;;;;;;11.10;4.40;;;;;;;;;;5021334;28;20048;-61
2023/10/23 13:06:51;;;;;;;19.38;4.90;;;;;;;;;;4997970;28;20037;-61
2023/10/23 13:19:20;;;;;;;20.25;4.55;;;;;;;;;;4982908;28;20049;-61
2023/10/23 13:47:41;;;;;;;10.82;3.53;;;;;;;;;;4977658;28;20059;-62
2023/10/23 13:50:59;;;;;;;18.17;3.83;;;;;;;;;;5014958;28;20168;-62
2023/10/23 13:54:15;;;;;;;17.50;4.03;;;;;;;;;;5003299;28;20032;-58
2023/10/23 14:16:04;;;;;;;12.80;3.95;;;;;;;;;;4996559;28;20092;-61
2023/10/23 14:22:39;;;;;;;13.45;3.35;;;;;;;;;;4998947;28;20088;-60
2023/10/23 14:32:03;;;;;;;17.02;3.58;;;;;;;;;;5005563;28;20032;-59
2023/10/23 14:41:22;;;;;;;16.92;4.32;;;;;;;;;;5002861;28;20044;-58
2023/10/23 14:54:07;;;;;;;11.82;3.60;;;;;;;;;;5026693;28;20143;-59
2023/10/23 15:06:36;;;;;;;21.83;4.75;;;;;;;;;;5009942;28;20690;-59
2023/10/23 15:09:37;;;;;;;15.27;4.88;;;;;;;;;;4991937;28;20026;-59
2023/10/23 15:12:47;;;;;;;15.70;4.20;;;;;;;;;;4987713;28;20525;-59
2023/10/23 15:15:51;;;;;;;17.77;4.30;;;;;;;;;;4947636;28;20475;-58
2023/10/23 15:19:01;;;;;;;17.75;4.45;;;;;;;;;;4971187;28;20238;-59
2023/10/23 15:22:04;;;;;;;17.50;4.25;;;;;;;;;;4992056;28;20049;-58
2023/10/23 15:25:09;;;;;;;22.90;4.88;;;;;;;;;;4977627;28;20042;-60
2023/10/23 15:28:14;;;;;;;19.23;4.13;;;;;;;;;;4982961;28;20042;-60
2023/10/23 15:31:20;;;;;;;16.50;4.47;;;;;;;;;;4993092;28;20095;-60
2023/10/23 15:34:31;;;;;;;14.50;4.50;;;;;;;;;;4980383;28;20052;-60
2023/10/23 15:37:42;;;;;;;18.70;5.07;;;;;;;;;;4972671;28;20045;-61
2023/10/23 15:40:51;;;;;;;13.35;3.63;;;;;;;;;;4955219;28;20038;-60
2023/10/23 15:44:00;;;;;;;12.68;3.85;;;;;;;;;;4978028;28;20138;-60
2023/10/23 15:47:09;;;;;;;16.70;4.05;;;;;;;;;;4954759;28;20132;-60
2023/10/23 15:49:59;;;;;;;;;;;;;;;;;;4982350;28;20088;-69
2023/10/23 15:53:04;;;;;;;16.25;3.90;;;;;;;;;;4976546;28;20059;-63
2023/10/23 15:56:15;;;;;;;15.25;3.90;;;;;;;;;;4959933;28;20071;-64
2023/10/23 15:59:19;;;;;;;15.18;3.80;;;;;;;;;;5013437;28;20033;-62
2023/10/23 16:02:22;;;;;;;15.02;4.35;;;;;;;;;;4983886;28;20038;-63
2023/10/23 16:05:31;;;;;;;11.38;3.90;;;;;;;;;;4987958;28;20037;-64
2023/10/23 16:08:43;;;;;;;14.65;3.85;;;;;;;;;;4978622;28;20125;-64
2023/10/23 16:11:56;;;;;;;12.60;4.07;;;;;;;;;;4984795;28;20433;-65
2023/10/23 16:18:04;;;;;;;10.43;3.75;;;;;;;;;;4983208;28;20141;-63
2023/10/23 16:24:19;;;;;;;14.85;4.35;;;;;;;;;;4983244;28;20038;-64
2023/10/23 16:27:21;;;;;;;13.55;4.30;;;;;;;;;;4971223;28;20618;-66
2023/10/23 16:30:34;;;;;;;13.00;4.30;;;;;;;;;;4977961;28;21176;-65
2023/10/23 16:33:46;;;;;;;12.40;4.30;;;;;;;;;;4976060;28;20054;-65
2023/10/23 16:36:59;;;;;;;12.00;4.60;;;;;;;;;;4986003;28;20079;-63
2023/10/23 16:40:05;;;;;;;13.02;4.63;;;;;;;;;;4964142;28;20031;-64
2023/10/23 16:43:13;;;;;;;12.57;4.70;;;;;;;;;;4969146;28;20548;-66
2023/10/23 17:16:03;;;;;;;12.88;4.53;;;;;;;;;;4990901;28;20096;-61
2023/10/23 17:19:10;;;;;;;14.52;4.72;;;;;;;;;;4967791;28;20116;-63
2023/10/23 17:22:20;;;;;;;12.48;4.70;;;;;;;;;;4974779;28;20073;-65
2023/10/23 17:25:27;;;;;;;15.23;5.13;;;;;;;;;;4977260;28;20048;-67
2023/10/23 17:28:29;;;;;;;15.90;5.07;;;;;;;;;;4994046;28;20377;-63
2023/10/23 17:31:33;;;;;;;11.88;4.35;;;;;;;;;;4983392;28;20061;-63
2023/10/23 17:34:45;;;;;;;12.90;4.95;;;;;;;;;;5000671;28;20116;-62
2023/10/23 17:37:56;;;;;;;12.07;4.75;;;;;;;;;;5000145;28;20087;-63
2023/10/23 17:41:05;;;;;;;13.20;5.43;;;;;;;;;;4988795;28;20293;-63
2023/10/23 17:44:06;;;;;;;12.27;5.13;;;;;;;;;;4962820;28;20057;-64
2023/10/23 17:47:04;;;;;;;13.32;4.93;;;;;;;;;;5006666;28;20128;-63
2023/10/23 17:50:07;;;;;;;10.82;4.68;;;;;;;;;;5004866;28;20037;-63
2023/10/23 17:52:52;;;;;;;13.57;5.00;;;;;;;;;;4988667;28;20141;-66
2023/10/23 17:55:48;;;;;;;13.98;4.85;;;;;;;;;;4986951;28;20488;-65
2023/10/23 17:58:37;;;;;;;11.73;4.93;;;;;;;;;;4982956;28;20066;-63
2023/10/23 18:01:17;;;;;;;11.45;4.45;;;;;;;;;;5007258;28;20531;-64
2023/10/23 18:04:15;;;;;;;12.05;5.10;;;;;;;;;;4966422;28;20041;-64
2023/10/23 18:07:14;;;;;;;15.95;4.88;;;;;;;;;;4992185;28;20526;-64
2023/10/23 18:10:27;;;;;;;11.68;5.03;;;;;;;;;;4981412;28;20394;-65
2023/10/23 18:16:31;;;;;;;15.57;5.40;;;;;;;;;;4982166;28;20038;-63
2023/10/23 18:19:44;;;;;;;11.57;5.05;;;;;;;;;;4975804;28;20046;-62
2023/10/23 18:22:27;;;;;;;10.65;4.35;;;;;;;;;;4987833;28;20044;-62
2023/10/23 18:25:06;;;;;;;11.25;4.95;;;;;;;;;;4956765;28;20035;-63
2023/10/23 18:27:54;;;;;;;13.27;4.97;;;;;;;;;;4973563;28;20060;-65
2023/10/23 18:30:56;;;;;;;12.38;4.80;;;;;;;;;;4981458;28;20100;-64
2023/10/23 18:33:45;;;;;;;11.70;4.88;;;;;;;;;;4953210;28;20049;-62
2023/10/23 18:39:11;;;;;;;11.10;5.35;;;;;;;;;;4990368;28;20100;-63
2023/10/23 18:41:59;;;;;;;10.95;4.78;;;;;;;;;;4989302;28;20026;-63
2023/10/23 18:44:46;;;;;;;11.27;5.05;;;;;;;;;;4988163;28;20850;-61
2023/10/23 18:47:35;;;;;;;11.23;4.90;;;;;;;;;;4968882;28;20172;-61
2023/10/23 18:53:42;;;;;;;9.13;4.80;;;;;;;;;;4977906;28;21216;-61
2023/10/23 18:56:27;;;;;;;11.60;4.60;;;;;;;;;;4975681;28;20030;-62
2023/10/23 18:59:14;;;;;;;9.98;3.90;;;;;;;;;;5000834;28;20058;-62
2023/10/23 19:01:52;;;;;;;13.10;5.03;;;;;;;;;;5005316;28;20037;-62
2023/10/23 19:04:43;;;;;;;11.55;4.55;;;;;;;;;;5008389;28;20157;-65
2023/10/23 19:07:31;;;;;;;12.57;4.80;;;;;;;;;;5018354;28;20033;-66
2023/10/23 19:10:09;;;;;;;10.88;4.47;;;;;;;;;;5003020;28;20044;-63
2023/10/23 19:12:55;;;;;;;12.40;4.38;;;;;;;;;;5007893;28;20096;-64
2023/10/23 19:22:12;;;;;;;11.45;4.57;;;;;;;;;;4994799;28;20249;-62
2023/10/23 19:25:06;;;;;;;11.07;4.45;;;;;;;;;;4968360;28;20035;-62
2023/10/23 19:27:56;;;;;;;9.43;4.10;;;;;;;;;;4982282;28;20038;-62
2023/10/23 19:31:01;;;;;;;12.80;4.65;;;;;;;;;;4983217;28;20480;-62
2023/10/23 19:33:57;;;;;;;17.45;5.40;;;;;;;;;;4997833;28;20049;-62
2023/10/23 19:36:40;;;;;;;18.20;5.75;;;;;;;;;;4992256;28;20026;-61
2023/10/23 19:39:37;;;;;;;15.90;5.68;;;;;;;;;;4975283;28;20102;-61
2023/10/23 19:42:26;;;;;;;15.20;4.88;;;;;;;;;;5015358;28;20434;-63
2023/10/23 19:45:14;;;;;;;14.50;5.00;;;;;;;;;;5006850;28;20037;-63
2023/10/23 19:48:02;;;;;;;17.73;5.45;;;;;;;;;;4987444;28;20044;-62
2023/10/23 19:50:49;;;;;;;20.70;5.82;;;;;;;;;;5002387;28;20443;-64
2023/10/23 19:53:38;;;;;;;15.00;5.25;;;;;;;;;;5008903;28;20034;-62
2023/10/23 19:56:26;;;;;;;20.00;5.85;;;;;;;;;;4997713;28;20649;-63
2023/10/23 19:58:56;;;;;;;13.23;5.07;;;;;;;;;;5000530;28;20581;-61
2023/10/23 20:01:56;;;;;;;14.20;5.43;;;;;;;;;;4976549;28;20034;-59
2023/10/23 20:05:11;;;;;;;15.30;5.60;;;;;;;;;;4986891;28;20476;-60
2023/10/23 20:08:11;;;;;;;15.43;5.65;;;;;;;;;;4990497;28;20518;-62
2023/10/23 20:11:08;;;;;;;15.38;5.35;;;;;;;;;;4976657;28;20609;-63
2023/10/23 20:14:01;;;;;;;15.23;4.80;;;;;;;;;;5010211;28;20029;-62
2023/10/23 20:16:52;;;;;;;14.23;4.82;;;;;;;;;;4993263;28;20089;-63
2023/10/23 20:19:50;;;;;;;15.23;4.78;;;;;;;;;;4989007;28;20140;-62
2023/10/23 20:22:36;;;;;;;12.80;4.35;;;;;;;;;;4999524;28;20033;-61
2023/10/23 20:25:29;;;;;;;17.70;5.10;;;;;;;;;;5006992;28;20029;-65
2023/10/23 20:28:12;;;;;;;13.32;4.68;;;;;;;;;;4998750;28;20044;-62
2023/10/23 20:30:52;;;;;;;14.32;4.75;;;;;;;;;;5006428;28;20052;-65
2023/10/23 20:33:57;;;;;;;15.63;4.43;;;;;;;;;;5004930;28;20076;-65
2023/10/23 20:36:59;;;;;;;13.55;5.22;;;;;;;;;;4991340;28;20107;-62
2023/10/23 20:43:02;;;;;;;14.52;4.90;;;;;;;;;;4990734;28;20624;-62
2023/10/23 20:45:50;;;;;;;16.30;4.65;;;;;;;;;;4993498;28;20065;-62
2023/10/23 20:49:03;;;;;;;20.08;4.90;;;;;;;;;;4972817;28;20116;-64
2023/10/23 20:51:55;;;;;;;12.50;4.40;;;;;;;;;;4968386;28;20072;-60
2023/10/23 20:54:50;;;;;;;13.23;4.53;;;;;;;;;;5001749;28;20303;-62
2023/10/23 20:57:52;;;;;;;15.23;5.30;;;;;;;;;;4993335;28;20052;-67
2023/10/23 21:00:40;;;;;;;13.18;5.20;;;;;;;;;;4994987;28;20530;-65
2023/10/23 21:03:38;;;;;;;16.08;4.70;;;;;;;;;;4986104;28;20037;-62
2023/10/23 21:06:32;;;;;;;11.02;4.53;;;;;;;;;;4991386;28;20487;-61
2023/10/23 21:09:52;;;;;;;16.85;5.15;;;;;;;;;;4975271;28;20057;-61
2023/10/23 21:12:41;;;;;;;9.65;3.95;;;;;;;;;;5005146;28;20113;-62
2023/10/23 21:15:29;;;;;;;11.27;4.80;;;;;;;;;;4997119;28;20521;-62
2023/10/23 21:18:44;;;;;;;11.57;4.18;;;;;;;;;;5004990;28;20041;-61
2023/10/23 21:24:03;;;;;;;;;;;;;;;;;;5017724;28;20037;-62
2023/10/23 21:29:49;;;;;;;12.10;4.57;;;;;;;;;;5026437;28;20045;-61
2023/10/23 21:32:36;;;;;;;12.98;4.40;;;;;;;;;;5024567;28;20036;-61
2023/10/23 21:35:51;;;;;;;10.45;3.78;;;;;;;;;;5005852;28;20037;-61
2023/10/23 21:38:41;;;;;;;8.73;4.30;;;;;;;;;;5026289;28;20095;-61
2023/10/23 21:45:06;;;;;;;10.52;3.90;;;;;;;;;;5021992;28;20037;-61
2023/10/23 21:47:43;;;;;;;12.55;4.10;;;;;;;;;;5012264;28;20075;-61
2023/10/23 21:50:25;;;;;;;9.25;4.18;;;;;;;;;;5009949;28;20030;-62
2023/10/23 21:53:13;;;;;;;12.23;4.15;;;;;;;;;;4995359;28;20044;-61
2023/10/23 21:56:02;;;;;;;10.82;4.18;;;;;;;;;;4997109;28;20514;-62
2023/10/23 21:59:21;;;;;;;9.65;3.75;;;;;;;;;;5016475;28;20498;-61
2023/10/23 22:02:21;;;;;;;11.02;3.50;;;;;;;;;;5012111;28;20095;-62
2023/10/23 22:08:15;;;;;;;9.20;3.60;;;;;;;;;;5002949;28;20120;-62
2023/10/23 22:17:23;;;;;;;9.43;3.42;;;;;;;;;;5345319;23;20041;-58
2023/10/23 22:29:50;;;;;;;9.13;3.40;;;;;;;;;;5011461;28;20068;-55
2023/10/23 22:34:51;;;;;;;8.65;3.83;;;;;;;;;;4357777;23;20112;-77
2023/10/23 22:37:19;;;;;;;10.67;4.10;;;;;;;;;;4985354;28;20496;-77
2023/10/23 22:39:44;;;;;;;9.13;3.92;;;;;;;;;;4986813;28;20046;-77
2023/10/23 22:42:12;;;;;;;9.43;3.80;;;;;;;;;;4973968;28;20389;-77
2023/10/23 22:44:38;;;;;;;11.05;4.15;;;;;;;;;;4973460;28;20037;-77
2023/10/23 22:47:03;;;;;;;9.52;3.88;;;;;;;;;;4996960;28;20037;-78
2023/10/23 22:49:29;;;;;;;8.45;3.42;;;;;;;;;;5007197;28;20133;-76
2023/10/23 22:51:54;;;;;;;8.82;3.60;;;;;;;;;;4995316;28;20036;-79
2023/10/23 22:54:19;;;;;;;10.95;4.00;;;;;;;;;;5007990;28;20041;-79
2023/10/23 22:56:45;;;;;;;10.05;3.50;;;;;;;;;;4999757;28;20073;-79
2023/10/23 22:59:13;;;;;;;11.23;4.20;;;;;;;;;;5007890;28;20474;-78
2023/10/23 23:01:38;;;;;;;9.40;4.32;;;;;;;;;;5002246;28;20495;-78
2023/10/23 23:04:04;;;;;;;9.57;3.50;;;;;;;;;;5013980;28;20025;-78
2023/10/23 23:06:29;;;;;;;8.93;4.10;;;;;;;;;;4996375;28;20029;-77
2023/10/23 23:08:55;;;;;;;7.43;3.63;;;;;;;;;;4990390;28;20100;-77
2023/10/23 23:11:20;;;;;;;8.30;3.40;;;;;;;;;;5000883;28;20022;-77
2023/10/23 23:13:46;;;;;;;8.88;3.60;;;;;;;;;;4987619;28;20014;-77
2023/10/23 23:16:11;;;;;;;9.20;3.15;;;;;;;;;;4990729;28;20770;-77
2023/10/23 23:18:38;;;;;;;10.80;3.40;;;;;;;;;;4988852;28;20449;-76
2023/10/23 23:21:03;;;;;;;10.63;4.18;;;;;;;;;;5015691;28;20271;-77
2023/10/23 23:23:28;;;;;;;8.10;3.25;;;;;;;;;;5007056;28;20021;-77
2023/10/23 23:25:54;;;;;;;9.75;3.80;;;;;;;;;;5007369;28;20010;-78
2023/10/23 23:28:19;;;;;;;9.00;3.63;;;;;;;;;;5025098;28;20468;-77
2023/10/23 23:30:44;;;;;;;11.47;4.20;;;;;;;;;;5006151;28;20021;-76
2023/10/23 23:33:09;;;;;;;8.47;3.93;;;;;;;;;;4996622;28;20363;-77
2023/10/23 23:35:36;;;;;;;8.53;3.50;;;;;;;;;;5006016;28;20682;-77
2023/10/23 23:38:01;;;;;;;9.10;3.83;;;;;;;;;;5007520;28;20651;-77
2023/10/23 23:40:26;;;;;;;8.50;3.53;;;;;;;;;;5006678;28;20029;-77
2023/10/23 23:42:51;;;;;;;8.90;3.63;;;;;;;;;;5009178;28;20791;-76
2023/10/23 23:45:17;;;;;;;8.03;3.53;;;;;;;;;;5017964;28;20549;-77
2023/10/23 23:47:42;;;;;;;7.73;3.80;;;;;;;;;;5024716;28;20563;-77
2023/10/23 23:50:07;;;;;;;8.87;3.50;;;;;;;;;;5024409;28;20519;-76
2023/10/23 23:52:32;;;;;;;8.35;3.45;;;;;;;;;;5015042;28;20274;-76
2023/10/23 23:55:00;;;;;;;9.70;3.92;;;;;;;;;;5007329;28;20118;-78
2023/10/23 23:57:25;;;;;;;9.65;3.50;;;;;;;;;;4987485;28;20026;-75
2023/10/23 23:59:50;;;;;;;10.23;3.40;;;;;;;;;;5024305;28;20032;-76
